sensor_id;sensor_type;location;lat;lon;timestamp;P1;durP1;ratioP1;P2;durP2;ratioP2
78718;SDS011;68046;53.334;9.538;2023-07-13T00:00:41;11.18;;;5.30;;
78718;SDS011;68046;53.334;9.538;2023-07-13T00:03:11;7.70;;;5.25;;
78718;SDS011;68046;53.334;9.538;2023-07-13T00:05:41;11.10;;;5.35;;
78718;SDS011;68046;53.334;9.538;2023-07-13T00:08:11;9.35;;;5.35;;
78718;SDS011;68046;53.334;9.538;2023-07-13T00:10:42;14.35;;;5.47;;
78718;SDS011;68046;53.334;9.538;2023-07-13T00:13:13;8.13;;;5.25;;
78718;SDS011;68046;53.334;9.538;2023-07-13T00:15:46;12.20;;;5.90;;
78718;SDS011;68046;53.334;9.538;2023-07-13T00:18:16;10.30;;;5.47;;
78718;SDS011;68046;53.334;9.538;2023-07-13T00:20:46;11.38;;;5.32;;
78718;SDS011;68046;53.334;9.538;2023-07-13T00:23:16;8.85;;;5.18;;
78718;SDS011;68046;53.334;9.538;2023-07-13T00:25:46;10.40;;;4.90;;
78718;SDS011;68046;53.334;9.538;2023-07-13T00:28:17;8.27;;;5.28;;
78718;SDS011;68046;53.334;9.538;2023-07-13T00:30:51;8.75;;;5.55;;
78718;SDS011;68046;53.334;9.538;2023-07-13T00:33:21;9.07;;;5.50;;
78718;SDS011;68046;53.334;9.538;2023-07-13T00:38:25;10.07;;;5.78;;
78718;SDS011;68046;53.334;9.538;2023-07-13T00:40:56;7.80;;;6.03;;
78718;SDS011;68046;53.334;9.538;2023-07-13T00:43:27;11.00;;;6.15;;
78718;SDS011;68046;53.334;9.538;2023-07-13T00:51:14;10.40;;;5.38;;
78718;SDS011;68046;53.334;9.538;2023-07-13T00:53:45;9.82;;;5.50;;
78718;SDS011;68046;53.334;9.538;2023-07-13T00:56:15;10.45;;;5.90;;
78718;SDS011;68046;53.334;9.538;2023-07-13T00:58:45;11.70;;;6.38;;
78718;SDS011;68046;53.334;9.538;2023-07-13T01:01:20;11.38;;;5.50;;
78718;SDS011;68046;53.334;9.538;2023-07-13T01:03:50;9.55;;;5.80;;
78718;SDS011;68046;53.334;9.538;2023-07-13T01:06:20;10.98;;;6.07;;
78718;SDS011;68046;53.334;9.538;2023-07-13T01:08:50;14.70;;;6.30;;
78718;SDS011;68046;53.334;9.538;2023-07-13T01:11:20;10.15;;;5.70;;
78718;SDS011;68046;53.334;9.538;2023-07-13T01:13:51;9.85;;;6.18;;
78718;SDS011;68046;53.334;9.538;2023-07-13T01:16:25;9.00;;;5.78;;
78718;SDS011;68046;53.334;9.538;2023-07-13T01:18:57;7.95;;;5.90;;
78718;SDS011;68046;53.334;9.538;2023-07-13T01:21:32;19.27;;;7.13;;
78718;SDS011;68046;53.334;9.538;2023-07-13T01:24:05;11.30;;;5.80;;
78718;SDS011;68046;53.334;9.538;2023-07-13T01:26:35;10.57;;;6.78;;
78718;SDS011;68046;53.334;9.538;2023-07-13T01:29:06;12.38;;;5.75;;
78718;SDS011;68046;53.334;9.538;2023-07-13T01:31:38;9.70;;;6.45;;
78718;SDS011;68046;53.334;9.538;2023-07-13T01:34:07;13.27;;;6.88;;
78718;SDS011;68046;53.334;9.538;2023-07-13T01:36:40;8.95;;;5.70;;
78718;SDS011;68046;53.334;9.538;2023-07-13T01:39:10;12.95;;;6.50;;
78718;SDS011;68046;53.334;9.538;2023-07-13T01:41:39;10.50;;;6.00;;
78718;SDS011;68046;53.334;9.538;2023-07-13T01:44:09;14.30;;;6.82;;
78718;SDS011;68046;53.334;9.538;2023-07-13T01:46:39;10.32;;;6.30;;
78718;SDS011;68046;53.334;9.538;2023-07-13T01:49:10;13.20;;;7.43;;
78718;SDS011;68046;53.334;9.538;2023-07-13T01:51:42;13.75;;;6.82;;
78718;SDS011;68046;53.334;9.538;2023-07-13T01:54:12;10.57;;;7.53;;
78718;SDS011;68046;53.334;9.538;2023-07-13T01:56:42;11.77;;;6.50;;
78718;SDS011;68046;53.334;9.538;2023-07-13T01:59:12;12.13;;;6.65;;
78718;SDS011;68046;53.334;9.538;2023-07-13T02:01:42;11.73;;;6.65;;
78718;SDS011;68046;53.334;9.538;2023-07-13T02:04:12;10.65;;;7.18;;
78718;SDS011;68046;53.334;9.538;2023-07-13T02:06:45;12.23;;;6.47;;
78718;SDS011;68046;53.334;9.538;2023-07-13T02:09:15;10.35;;;6.97;;
78718;SDS011;68046;53.334;9.538;2023-07-13T02:11:44;9.98;;;5.90;;
78718;SDS011;68046;53.334;9.538;2023-07-13T02:14:19;11.73;;;6.22;;
78718;SDS011;68046;53.334;9.538;2023-07-13T02:16:48;10.55;;;6.97;;
78718;SDS011;68046;53.334;9.538;2023-07-13T02:19:18;10.90;;;6.10;;
78718;SDS011;68046;53.334;9.538;2023-07-13T02:21:51;11.90;;;6.38;;
78718;SDS011;68046;53.334;9.538;2023-07-13T02:24:20;9.48;;;6.38;;
78718;SDS011;68046;53.334;9.538;2023-07-13T02:26:50;16.65;;;6.75;;
78718;SDS011;68046;53.334;9.538;2023-07-13T02:29:20;10.98;;;6.78;;
78718;SDS011;68046;53.334;9.538;2023-07-13T02:31:50;13.15;;;7.68;;
78718;SDS011;68046;53.334;9.538;2023-07-13T02:34:20;10.93;;;6.25;;
78718;SDS011;68046;53.334;9.538;2023-07-13T02:36:53;12.48;;;6.05;;
78718;SDS011;68046;53.334;9.538;2023-07-13T02:39:22;11.30;;;7.03;;
78718;SDS011;68046;53.334;9.538;2023-07-13T02:41:52;12.70;;;6.43;;
78718;SDS011;68046;53.334;9.538;2023-07-13T02:44:22;12.13;;;6.53;;
78718;SDS011;68046;53.334;9.538;2023-07-13T02:46:52;14.18;;;7.07;;
78718;SDS011;68046;53.334;9.538;2023-07-13T02:49:21;10.85;;;6.22;;
78718;SDS011;68046;53.334;9.538;2023-07-13T02:51:54;8.85;;;6.18;;
78718;SDS011;68046;53.334;9.538;2023-07-13T02:54:23;10.82;;;6.90;;
78718;SDS011;68046;53.334;9.538;2023-07-13T02:56:53;10.13;;;6.07;;
78718;SDS011;68046;53.334;9.538;2023-07-13T02:59:23;9.68;;;6.15;;
78718;SDS011;68046;53.334;9.538;2023-07-13T03:01:53;12.43;;;6.63;;
78718;SDS011;68046;53.334;9.538;2023-07-13T03:04:23;19.17;;;6.57;;
78718;SDS011;68046;53.334;9.538;2023-07-13T03:06:55;13.85;;;6.70;;
78718;SDS011;68046;53.334;9.538;2023-07-13T03:09:33;11.60;;;6.90;;
78718;SDS011;68046;53.334;9.538;2023-07-13T03:12:06;10.02;;;6.50;;
78718;SDS011;68046;53.334;9.538;2023-07-13T03:14:37;7.47;;;5.28;;
78718;SDS011;68046;53.334;9.538;2023-07-13T03:17:07;11.52;;;6.55;;
78718;SDS011;68046;53.334;9.538;2023-07-13T03:19:39;13.10;;;6.78;;
78718;SDS011;68046;53.334;9.538;2023-07-13T03:22:13;12.13;;;6.93;;
78718;SDS011;68046;53.334;9.538;2023-07-13T03:24:43;12.82;;;6.95;;
78718;SDS011;68046;53.334;9.538;2023-07-13T03:27:13;13.40;;;6.47;;
78718;SDS011;68046;53.334;9.538;2023-07-13T03:29:46;10.43;;;6.65;;
78718;SDS011;68046;53.334;9.538;2023-07-13T03:32:17;20.23;;;7.22;;
78718;SDS011;68046;53.334;9.538;2023-07-13T03:34:47;13.45;;;7.05;;
78718;SDS011;68046;53.334;9.538;2023-07-13T03:39:50;14.68;;;7.68;;
78718;SDS011;68046;53.334;9.538;2023-07-13T03:42:20;12.43;;;6.97;;
78718;SDS011;68046;53.334;9.538;2023-07-13T03:44:50;15.32;;;7.25;;
78718;SDS011;68046;53.334;9.538;2023-07-13T03:47:21;20.50;;;7.05;;
78718;SDS011;68046;53.334;9.538;2023-07-13T03:49:51;16.15;;;7.95;;
78718;SDS011;68046;53.334;9.538;2023-07-13T03:52:23;10.50;;;6.50;;
78718;SDS011;68046;53.334;9.538;2023-07-13T03:54:53;14.00;;;7.03;;
78718;SDS011;68046;53.334;9.538;2023-07-13T03:57:23;15.73;;;6.80;;
78718;SDS011;68046;53.334;9.538;2023-07-13T03:59:53;13.32;;;7.32;;
78718;SDS011;68046;53.334;9.538;2023-07-13T04:02:23;11.60;;;7.30;;
78718;SDS011;68046;53.334;9.538;2023-07-13T04:04:53;14.60;;;7.78;;
78718;SDS011;68046;53.334;9.538;2023-07-13T04:07:26;20.33;;;7.97;;
78718;SDS011;68046;53.334;9.538;2023-07-13T04:09:56;18.02;;;8.02;;
78718;SDS011;68046;53.334;9.538;2023-07-13T04:12:25;22.23;;;10.13;;
78718;SDS011;68046;53.334;9.538;2023-07-13T04:14:56;17.10;;;8.70;;
78718;SDS011;68046;53.334;9.538;2023-07-13T04:17:26;17.30;;;9.02;;
78718;SDS011;68046;53.334;9.538;2023-07-13T04:19:56;21.55;;;9.43;;
78718;SDS011;68046;53.334;9.538;2023-07-13T04:22:28;20.77;;;8.95;;
78718;SDS011;68046;53.334;9.538;2023-07-13T04:24:58;14.00;;;9.27;;
78718;SDS011;68046;53.334;9.538;2023-07-13T04:27:28;15.35;;;9.05;;
78718;SDS011;68046;53.334;9.538;2023-07-13T04:29:57;19.75;;;9.27;;
78718;SDS011;68046;53.334;9.538;2023-07-13T04:32:27;17.25;;;9.15;;
78718;SDS011;68046;53.334;9.538;2023-07-13T04:34:58;19.33;;;10.13;;
78718;SDS011;68046;53.334;9.538;2023-07-13T04:37:31;27.63;;;9.60;;
78718;SDS011;68046;53.334;9.538;2023-07-13T04:40:02;21.73;;;8.40;;
78718;SDS011;68046;53.334;9.538;2023-07-13T04:42:32;20.73;;;8.85;;
78718;SDS011;68046;53.334;9.538;2023-07-13T04:45:03;24.15;;;8.93;;
78718;SDS011;68046;53.334;9.538;2023-07-13T04:47:34;19.90;;;7.90;;
78718;SDS011;68046;53.334;9.538;2023-07-13T04:50:05;20.23;;;8.05;;
78718;SDS011;68046;53.334;9.538;2023-07-13T04:52:38;15.10;;;7.95;;
78718;SDS011;68046;53.334;9.538;2023-07-13T04:55:08;17.83;;;8.48;;
78718;SDS011;68046;53.334;9.538;2023-07-13T04:57:38;21.77;;;8.10;;
78718;SDS011;68046;53.334;9.538;2023-07-13T05:00:08;16.55;;;7.70;;
78718;SDS011;68046;53.334;9.538;2023-07-13T05:02:39;23.75;;;8.10;;
78718;SDS011;68046;53.334;9.538;2023-07-13T05:05:09;25.50;;;7.95;;
78718;SDS011;68046;53.334;9.538;2023-07-13T05:07:42;19.75;;;7.85;;
78718;SDS011;68046;53.334;9.538;2023-07-13T05:10:14;19.85;;;7.68;;
78718;SDS011;68046;53.334;9.538;2023-07-13T05:12:44;20.38;;;7.55;;
78718;SDS011;68046;53.334;9.538;2023-07-13T05:15:14;28.42;;;9.43;;
78718;SDS011;68046;53.334;9.538;2023-07-13T05:17:47;18.85;;;7.72;;
78718;SDS011;68046;53.334;9.538;2023-07-13T05:20:17;21.17;;;9.05;;
78718;SDS011;68046;53.334;9.538;2023-07-13T05:22:50;28.63;;;7.85;;
78718;SDS011;68046;53.334;9.538;2023-07-13T05:25:20;20.27;;;7.93;;
78718;SDS011;68046;53.334;9.538;2023-07-13T05:27:50;21.17;;;7.38;;
78718;SDS011;68046;53.334;9.538;2023-07-13T05:30:20;20.55;;;7.18;;
78718;SDS011;68046;53.334;9.538;2023-07-13T05:32:50;17.85;;;7.22;;
78718;SDS011;68046;53.334;9.538;2023-07-13T05:35:19;28.65;;;7.00;;
78718;SDS011;68046;53.334;9.538;2023-07-13T05:37:52;23.50;;;8.05;;
78718;SDS011;68046;53.334;9.538;2023-07-13T05:40:22;30.00;;;8.23;;
78718;SDS011;68046;53.334;9.538;2023-07-13T05:42:51;27.92;;;6.80;;
78718;SDS011;68046;53.334;9.538;2023-07-13T05:45:21;14.85;;;6.50;;
78718;SDS011;68046;53.334;9.538;2023-07-13T05:47:52;14.50;;;6.43;;
78718;SDS011;68046;53.334;9.538;2023-07-13T05:50:22;20.30;;;6.95;;
78718;SDS011;68046;53.334;9.538;2023-07-13T05:52:54;18.02;;;6.28;;
78718;SDS011;68046;53.334;9.538;2023-07-13T05:55:24;16.55;;;6.47;;
78718;SDS011;68046;53.334;9.538;2023-07-13T05:57:54;22.90;;;7.05;;
78718;SDS011;68046;53.334;9.538;2023-07-13T06:02:55;17.25;;;6.03;;
78718;SDS011;68046;53.334;9.538;2023-07-13T06:05:25;25.90;;;6.72;;
78718;SDS011;68046;53.334;9.538;2023-07-13T06:07:58;24.27;;;7.10;;
78718;SDS011;68046;53.334;9.538;2023-07-13T06:10:28;37.85;;;7.70;;
78718;SDS011;68046;53.334;9.538;2023-07-13T06:12:58;16.65;;;6.38;;
78718;SDS011;68046;53.334;9.538;2023-07-13T06:15:28;19.95;;;6.78;;
78718;SDS011;68046;53.334;9.538;2023-07-13T06:17:58;19.52;;;6.88;;
78718;SDS011;68046;53.334;9.538;2023-07-13T06:20:28;14.45;;;5.43;;
78718;SDS011;68046;53.334;9.538;2023-07-13T06:23:01;19.17;;;5.80;;
78718;SDS011;68046;53.334;9.538;2023-07-13T06:25:31;25.15;;;6.78;;
78718;SDS011;68046;53.334;9.538;2023-07-13T06:28:00;23.42;;;6.88;;
78718;SDS011;68046;53.334;9.538;2023-07-13T06:30:30;19.52;;;6.60;;
78718;SDS011;68046;53.334;9.538;2023-07-13T06:33:01;25.38;;;7.13;;
78718;SDS011;68046;53.334;9.538;2023-07-13T06:35:31;17.48;;;6.07;;
78718;SDS011;68046;53.334;9.538;2023-07-13T06:38:03;19.75;;;6.15;;
78718;SDS011;68046;53.334;9.538;2023-07-13T06:40:33;20.05;;;6.68;;
78718;SDS011;68046;53.334;9.538;2023-07-13T06:43:03;21.35;;;6.70;;
78718;SDS011;68046;53.334;9.538;2023-07-13T06:45:32;24.17;;;6.88;;
78718;SDS011;68046;53.334;9.538;2023-07-13T06:48:04;19.30;;;5.68;;
78718;SDS011;68046;53.334;9.538;2023-07-13T06:50:35;19.85;;;5.68;;
78718;SDS011;68046;53.334;9.538;2023-07-13T06:53:07;21.00;;;6.10;;
78718;SDS011;68046;53.334;9.538;2023-07-13T06:55:37;26.23;;;6.85;;
78718;SDS011;68046;53.334;9.538;2023-07-13T06:58:07;22.88;;;5.35;;
78718;SDS011;68046;53.334;9.538;2023-07-13T07:00:37;21.90;;;6.05;;
78718;SDS011;68046;53.334;9.538;2023-07-13T07:03:07;23.38;;;6.10;;
78718;SDS011;68046;53.334;9.538;2023-07-13T07:05:37;25.58;;;6.22;;
78718;SDS011;68046;53.334;9.538;2023-07-13T07:08:09;20.75;;;5.38;;
78718;SDS011;68046;53.334;9.538;2023-07-13T07:10:39;19.10;;;6.55;;
78718;SDS011;68046;53.334;9.538;2023-07-13T07:13:09;24.05;;;6.15;;
78718;SDS011;68046;53.334;9.538;2023-07-13T07:15:39;19.50;;;6.63;;
78718;SDS011;68046;53.334;9.538;2023-07-13T07:18:09;20.02;;;6.80;;
78718;SDS011;68046;53.334;9.538;2023-07-13T07:20:39;21.55;;;6.90;;
78718;SDS011;68046;53.334;9.538;2023-07-13T07:23:11;18.38;;;6.35;;
78718;SDS011;68046;53.334;9.538;2023-07-13T07:25:43;23.77;;;7.55;;
78718;SDS011;68046;53.334;9.538;2023-07-13T07:28:14;22.92;;;8.38;;
78718;SDS011;68046;53.334;9.538;2023-07-13T07:30:48;22.88;;;7.38;;
78718;SDS011;68046;53.334;9.538;2023-07-13T07:33:22;24.65;;;7.28;;
78718;SDS011;68046;53.334;9.538;2023-07-13T07:35:52;27.05;;;8.15;;
78718;SDS011;68046;53.334;9.538;2023-07-13T07:38:27;30.98;;;8.55;;
78718;SDS011;68046;53.334;9.538;2023-07-13T07:40:57;19.80;;;8.48;;
78718;SDS011;68046;53.334;9.538;2023-07-13T07:43:29;27.83;;;8.20;;
78718;SDS011;68046;53.334;9.538;2023-07-13T07:45:59;28.33;;;9.85;;
78718;SDS011;68046;53.334;9.538;2023-07-13T07:48:29;17.67;;;7.93;;
78718;SDS011;68046;53.334;9.538;2023-07-13T07:50:59;17.08;;;8.32;;
78718;SDS011;68046;53.334;9.538;2023-07-13T07:53:31;20.20;;;8.73;;
78718;SDS011;68046;53.334;9.538;2023-07-13T07:56:01;19.23;;;8.65;;
78718;SDS011;68046;53.334;9.538;2023-07-13T07:58:52;27.15;;;9.82;;
78718;SDS011;68046;53.334;9.538;2023-07-13T08:01:24;27.20;;;9.10;;
78718;SDS011;68046;53.334;9.538;2023-07-13T08:03:57;25.33;;;9.07;;
78718;SDS011;68046;53.334;9.538;2023-07-13T08:06:31;16.70;;;9.32;;
78718;SDS011;68046;53.334;9.538;2023-07-13T08:09:06;21.17;;;10.32;;
78718;SDS011;68046;53.334;9.538;2023-07-13T08:11:36;20.58;;;9.40;;
78718;SDS011;68046;53.334;9.538;2023-07-13T08:14:09;26.83;;;10.45;;
78718;SDS011;68046;53.334;9.538;2023-07-13T08:16:38;31.38;;;11.23;;
78718;SDS011;68046;53.334;9.538;2023-07-13T08:19:21;27.63;;;10.38;;
78718;SDS011;68046;53.334;9.538;2023-07-13T08:21:50;26.27;;;9.30;;
78718;SDS011;68046;53.334;9.538;2023-07-13T08:24:24;24.40;;;9.90;;
78718;SDS011;68046;53.334;9.538;2023-07-13T08:26:53;25.95;;;10.15;;
78718;SDS011;68046;53.334;9.538;2023-07-13T08:29:23;27.15;;;9.48;;
78718;SDS011;68046;53.334;9.538;2023-07-13T08:31:53;12.63;;;7.53;;
78718;SDS011;68046;53.334;9.538;2023-07-13T08:34:23;28.30;;;8.25;;
78718;SDS011;68046;53.334;9.538;2023-07-13T08:37:01;22.73;;;9.10;;
78718;SDS011;68046;53.334;9.538;2023-07-13T08:39:33;20.58;;;7.38;;
78718;SDS011;68046;53.334;9.538;2023-07-13T08:42:04;23.45;;;8.82;;
78718;SDS011;68046;53.334;9.538;2023-07-13T08:44:38;15.85;;;8.25;;
78718;SDS011;68046;53.334;9.538;2023-07-13T08:47:14;21.10;;;8.07;;
78718;SDS011;68046;53.334;9.538;2023-07-13T08:49:44;17.80;;;7.63;;
78718;SDS011;68046;53.334;9.538;2023-07-13T08:52:16;17.95;;;7.25;;
78718;SDS011;68046;53.334;9.538;2023-07-13T08:54:55;19.95;;;8.10;;
78718;SDS011;68046;53.334;9.538;2023-07-13T08:57:35;21.15;;;9.35;;
78718;SDS011;68046;53.334;9.538;2023-07-13T09:00:07;17.85;;;9.10;;
78718;SDS011;68046;53.334;9.538;2023-07-13T09:02:42;16.58;;;9.13;;
78718;SDS011;68046;53.334;9.538;2023-07-13T09:05:21;16.30;;;8.85;;
78718;SDS011;68046;53.334;9.538;2023-07-13T09:07:59;18.58;;;8.95;;
78718;SDS011;68046;53.334;9.538;2023-07-13T09:10:43;16.23;;;9.27;;
78718;SDS011;68046;53.334;9.538;2023-07-13T09:13:19;24.27;;;9.60;;
78718;SDS011;68046;53.334;9.538;2023-07-13T09:15:54;16.50;;;8.77;;
78718;SDS011;68046;53.334;9.538;2023-07-13T09:18:26;22.23;;;9.18;;
78718;SDS011;68046;53.334;9.538;2023-07-13T09:20:57;24.98;;;11.38;;
78718;SDS011;68046;53.334;9.538;2023-07-13T09:23:28;12.13;;;8.60;;
78718;SDS011;68046;53.334;9.538;2023-07-13T09:26:02;19.83;;;9.88;;
78718;SDS011;68046;53.334;9.538;2023-07-13T09:28:35;21.25;;;9.77;;
78718;SDS011;68046;53.334;9.538;2023-07-13T09:31:10;15.70;;;9.65;;
78718;SDS011;68046;53.334;9.538;2023-07-13T09:33:42;21.30;;;10.32;;
78718;SDS011;68046;53.334;9.538;2023-07-13T09:36:17;22.98;;;10.82;;
78718;SDS011;68046;53.334;9.538;2023-07-13T09:38:53;18.67;;;11.00;;
78718;SDS011;68046;53.334;9.538;2023-07-13T09:41:31;20.85;;;10.57;;
78718;SDS011;68046;53.334;9.538;2023-07-13T09:44:07;15.88;;;8.73;;
78718;SDS011;68046;53.334;9.538;2023-07-13T09:46:39;13.43;;;7.93;;
78718;SDS011;68046;53.334;9.538;2023-07-13T09:49:13;15.50;;;7.45;;
78718;SDS011;68046;53.334;9.538;2023-07-13T09:54:19;9.77;;;6.53;;
78718;SDS011;68046;53.334;9.538;2023-07-13T09:56:56;19.67;;;7.20;;
78718;SDS011;68046;53.334;9.538;2023-07-13T09:59:27;19.63;;;6.47;;
78718;SDS011;68046;53.334;9.538;2023-07-13T10:01:59;12.77;;;6.68;;
78718;SDS011;68046;53.334;9.538;2023-07-13T10:04:30;12.20;;;5.43;;
78718;SDS011;68046;53.334;9.538;2023-07-13T10:07:05;11.45;;;6.30;;
78718;SDS011;68046;53.334;9.538;2023-07-13T10:09:54;11.25;;;4.68;;
78718;SDS011;68046;53.334;9.538;2023-07-13T10:12:28;11.52;;;6.22;;
78718;SDS011;68046;53.334;9.538;2023-07-13T10:14:58;20.25;;;5.97;;
78718;SDS011;68046;53.334;9.538;2023-07-13T10:17:49;10.23;;;6.22;;
78718;SDS011;68046;53.334;9.538;2023-07-13T10:20:20;9.60;;;5.00;;
78718;SDS011;68046;53.334;9.538;2023-07-13T10:25:22;9.48;;;4.47;;
78718;SDS011;68046;53.334;9.538;2023-07-13T10:28:00;11.70;;;4.18;;
78718;SDS011;68046;53.334;9.538;2023-07-13T10:30:32;17.08;;;5.78;;
78718;SDS011;68046;53.334;9.538;2023-07-13T10:33:08;7.93;;;4.03;;
78718;SDS011;68046;53.334;9.538;2023-07-13T10:35:40;9.50;;;3.55;;
78718;SDS011;68046;53.334;9.538;2023-07-13T10:38:13;13.15;;;3.83;;
78718;SDS011;68046;53.334;9.538;2023-07-13T10:40:45;5.63;;;3.03;;
78718;SDS011;68046;53.334;9.538;2023-07-13T10:43:22;10.57;;;3.13;;
78718;SDS011;68046;53.334;9.538;2023-07-13T10:45:54;11.18;;;3.38;;
78718;SDS011;68046;53.334;9.538;2023-07-13T10:48:25;9.38;;;3.80;;
78718;SDS011;68046;53.334;9.538;2023-07-13T10:50:56;13.52;;;3.88;;
78718;SDS011;68046;53.334;9.538;2023-07-13T10:53:28;7.85;;;3.90;;
78718;SDS011;68046;53.334;9.538;2023-07-13T10:56:00;6.95;;;3.10;;
78718;SDS011;68046;53.334;9.538;2023-07-13T10:58:35;12.70;;;3.72;;
78718;SDS011;68046;53.334;9.538;2023-07-13T11:01:07;11.50;;;3.58;;
78718;SDS011;68046;53.334;9.538;2023-07-13T11:03:46;7.53;;;3.47;;
78718;SDS011;68046;53.334;9.538;2023-07-13T11:06:29;9.45;;;3.67;;
78718;SDS011;68046;53.334;9.538;2023-07-13T11:09:17;8.55;;;3.13;;
78718;SDS011;68046;53.334;9.538;2023-07-13T11:11:48;11.45;;;3.30;;
78718;SDS011;68046;53.334;9.538;2023-07-13T11:14:34;8.75;;;3.20;;
78718;SDS011;68046;53.334;9.538;2023-07-13T11:17:23;6.47;;;3.22;;
78718;SDS011;68046;53.334;9.538;2023-07-13T11:22:51;7.90;;;3.30;;
78718;SDS011;68046;53.334;9.538;2023-07-13T11:25:26;11.07;;;3.78;;
78718;SDS011;68046;53.334;9.538;2023-07-13T11:28:06;8.40;;;3.10;;
78718;SDS011;68046;53.334;9.538;2023-07-13T11:30:46;10.20;;;3.13;;
78718;SDS011;68046;53.334;9.538;2023-07-13T11:33:19;10.02;;;3.03;;
78718;SDS011;68046;53.334;9.538;2023-07-13T11:35:57;9.07;;;2.88;;
78718;SDS011;68046;53.334;9.538;2023-07-13T11:38:31;7.75;;;2.95;;
78718;SDS011;68046;53.334;9.538;2023-07-13T11:41:03;10.43;;;3.25;;
78718;SDS011;68046;53.334;9.538;2023-07-13T11:43:34;8.45;;;3.10;;
78718;SDS011;68046;53.334;9.538;2023-07-13T11:46:18;12.18;;;3.33;;
78718;SDS011;68046;53.334;9.538;2023-07-13T11:48:51;9.52;;;2.83;;
78718;SDS011;68046;53.334;9.538;2023-07-13T11:51:21;11.90;;;3.88;;
78718;SDS011;68046;53.334;9.538;2023-07-13T11:53:53;9.30;;;3.70;;
78718;SDS011;68046;53.334;9.538;2023-07-13T11:56:24;10.38;;;3.70;;
78718;SDS011;68046;53.334;9.538;2023-07-13T11:58:55;5.50;;;2.83;;
78718;SDS011;68046;53.334;9.538;2023-07-13T12:01:29;7.85;;;3.55;;
78718;SDS011;68046;53.334;9.538;2023-07-13T12:04:00;7.95;;;3.67;;
78718;SDS011;68046;53.334;9.538;2023-07-13T12:06:33;5.25;;;3.20;;
78718;SDS011;68046;53.334;9.538;2023-07-13T12:09:10;6.50;;;3.05;;
78718;SDS011;68046;53.334;9.538;2023-07-13T12:11:42;8.57;;;3.25;;
78718;SDS011;68046;53.334;9.538;2023-07-13T12:14:16;6.20;;;3.40;;
78718;SDS011;68046;53.334;9.538;2023-07-13T12:16:49;9.90;;;3.17;;
78718;SDS011;68046;53.334;9.538;2023-07-13T12:19:20;9.65;;;3.30;;
78718;SDS011;68046;53.334;9.538;2023-07-13T12:21:53;7.35;;;3.30;;
78718;SDS011;68046;53.334;9.538;2023-07-13T12:24:25;8.13;;;3.05;;
78718;SDS011;68046;53.334;9.538;2023-07-13T12:26:59;6.15;;;3.22;;
78718;SDS011;68046;53.334;9.538;2023-07-13T12:29:33;6.95;;;3.20;;
78718;SDS011;68046;53.334;9.538;2023-07-13T12:32:07;9.35;;;3.30;;
78718;SDS011;68046;53.334;9.538;2023-07-13T12:34:50;4.45;;;2.45;;
78718;SDS011;68046;53.334;9.538;2023-07-13T12:37:23;5.28;;;2.85;;
78718;SDS011;68046;53.334;9.538;2023-07-13T12:39:54;5.25;;;2.45;;
78718;SDS011;68046;53.334;9.538;2023-07-13T12:42:25;4.10;;;2.30;;
78718;SDS011;68046;53.334;9.538;2023-07-13T12:44:57;5.82;;;3.17;;
78718;SDS011;68046;53.334;9.538;2023-07-13T12:47:32;3.35;;;2.25;;
78718;SDS011;68046;53.334;9.538;2023-07-13T12:50:15;5.15;;;2.35;;
78718;SDS011;68046;53.334;9.538;2023-07-13T12:52:50;5.53;;;2.92;;
78718;SDS011;68046;53.334;9.538;2023-07-13T12:55:20;7.65;;;2.70;;
78718;SDS011;68046;53.334;9.538;2023-07-13T12:57:54;5.60;;;2.80;;
78718;SDS011;68046;53.334;9.538;2023-07-13T13:00:27;6.53;;;3.40;;
78718;SDS011;68046;53.334;9.538;2023-07-13T13:03:05;5.32;;;3.03;;
78718;SDS011;68046;53.334;9.538;2023-07-13T13:05:41;6.25;;;3.13;;
78718;SDS011;68046;53.334;9.538;2023-07-13T13:08:12;9.77;;;4.03;;
78718;SDS011;68046;53.334;9.538;2023-07-13T13:10:42;10.48;;;3.97;;
78718;SDS011;68046;53.334;9.538;2023-07-13T13:13:13;6.70;;;3.30;;
78718;SDS011;68046;53.334;9.538;2023-07-13T13:15:43;6.95;;;3.30;;
78718;SDS011;68046;53.334;9.538;2023-07-13T13:21:11;7.38;;;3.67;;
78718;SDS011;68046;53.334;9.538;2023-07-13T13:23:42;11.18;;;3.45;;
78718;SDS011;68046;53.334;9.538;2023-07-13T13:26:17;6.25;;;3.53;;
78718;SDS011;68046;53.334;9.538;2023-07-13T13:28:48;7.70;;;3.28;;
78718;SDS011;68046;53.334;9.538;2023-07-13T13:31:18;8.57;;;3.05;;
78718;SDS011;68046;53.334;9.538;2023-07-13T13:34:14;5.70;;;2.85;;
78718;SDS011;68046;53.334;9.538;2023-07-13T13:36:45;5.35;;;2.85;;
78718;SDS011;68046;53.334;9.538;2023-07-13T13:39:20;5.78;;;2.90;;
78718;SDS011;68046;53.334;9.538;2023-07-13T13:41:53;8.13;;;2.88;;
78718;SDS011;68046;53.334;9.538;2023-07-13T13:44:31;3.95;;;2.67;;
78718;SDS011;68046;53.334;9.538;2023-07-13T13:47:01;5.30;;;2.75;;
78718;SDS011;68046;53.334;9.538;2023-07-13T13:49:34;4.88;;;2.63;;
78718;SDS011;68046;53.334;9.538;2023-07-13T13:52:04;4.45;;;2.60;;
78718;SDS011;68046;53.334;9.538;2023-07-13T13:54:37;5.22;;;2.50;;
78718;SDS011;68046;53.334;9.538;2023-07-13T13:57:08;4.22;;;2.40;;
78718;SDS011;68046;53.334;9.538;2023-07-13T13:59:39;7.07;;;2.63;;
78718;SDS011;68046;53.334;9.538;2023-07-13T14:02:19;6.43;;;2.65;;
78718;SDS011;68046;53.334;9.538;2023-07-13T14:04:56;13.60;;;3.10;;
78718;SDS011;68046;53.334;9.538;2023-07-13T14:07:28;5.00;;;2.30;;
78718;SDS011;68046;53.334;9.538;2023-07-13T14:09:58;5.30;;;3.10;;
78718;SDS011;68046;53.334;9.538;2023-07-13T14:12:29;6.82;;;2.65;;
78718;SDS011;68046;53.334;9.538;2023-07-13T14:15:36;8.77;;;3.03;;
78718;SDS011;68046;53.334;9.538;2023-07-13T14:18:07;6.20;;;2.63;;
78718;SDS011;68046;53.334;9.538;2023-07-13T14:20:40;5.90;;;3.30;;
78718;SDS011;68046;53.334;9.538;2023-07-13T14:23:12;7.18;;;2.92;;
78718;SDS011;68046;53.334;9.538;2023-07-13T14:25:49;5.90;;;2.60;;
78718;SDS011;68046;53.334;9.538;2023-07-13T14:28:23;7.47;;;2.95;;
78718;SDS011;68046;53.334;9.538;2023-07-13T14:30:56;5.20;;;2.80;;
78718;SDS011;68046;53.334;9.538;2023-07-13T14:33:26;4.70;;;3.17;;
78718;SDS011;68046;53.334;9.538;2023-07-13T14:35:59;8.73;;;3.28;;
78718;SDS011;68046;53.334;9.538;2023-07-13T14:39:05;7.95;;;3.53;;
78718;SDS011;68046;53.334;9.538;2023-07-13T14:41:41;7.65;;;3.60;;
78718;SDS011;68046;53.334;9.538;2023-07-13T14:44:11;8.13;;;3.42;;
78718;SDS011;68046;53.334;9.538;2023-07-13T14:46:42;6.70;;;3.53;;
78718;SDS011;68046;53.334;9.538;2023-07-13T14:49:14;9.05;;;4.00;;
78718;SDS011;68046;53.334;9.538;2023-07-13T14:51:49;7.90;;;3.75;;
78718;SDS011;68046;53.334;9.538;2023-07-13T14:54:19;7.97;;;3.83;;
78718;SDS011;68046;53.334;9.538;2023-07-13T14:56:50;8.98;;;3.75;;
78718;SDS011;68046;53.334;9.538;2023-07-13T14:59:22;6.38;;;3.90;;
78718;SDS011;68046;53.334;9.538;2023-07-13T15:01:52;13.02;;;4.05;;
78718;SDS011;68046;53.334;9.538;2023-07-13T15:04:21;7.38;;;3.80;;
78718;SDS011;68046;53.334;9.538;2023-07-13T15:06:57;7.13;;;3.72;;
78718;SDS011;68046;53.334;9.538;2023-07-13T15:09:30;9.18;;;3.60;;
78718;SDS011;68046;53.334;9.538;2023-07-13T15:12:00;9.20;;;4.00;;
78718;SDS011;68046;53.334;9.538;2023-07-13T15:14:31;11.55;;;4.20;;
78718;SDS011;68046;53.334;9.538;2023-07-13T15:17:01;7.03;;;3.95;;
78718;SDS011;68046;53.334;9.538;2023-07-13T15:19:31;16.27;;;4.00;;
78718;SDS011;68046;53.334;9.538;2023-07-13T15:22:04;5.95;;;2.75;;
78718;SDS011;68046;53.334;9.538;2023-07-13T15:24:34;7.05;;;2.55;;
78718;SDS011;68046;53.334;9.538;2023-07-13T15:27:04;3.50;;;2.03;;
78718;SDS011;68046;53.334;9.538;2023-07-13T15:29:36;8.77;;;1.88;;
78718;SDS011;68046;53.334;9.538;2023-07-13T15:32:11;4.78;;;2.15;;